createdAt,value
2023-01-26T00:01:23.718Z,99744.81
2023-01-26T00:03:50.806Z,99732.09
2023-01-26T00:06:18.636Z,99735.31
2023-01-26T00:08:47.118Z,99721.00
2023-01-26T00:11:15.475Z,99721.00
2023-01-26T00:13:42.552Z,99719.63
2023-01-26T00:16:14.145Z,99711.25
2023-01-26T00:18:41.579Z,99698.84
2023-01-26T00:21:09.075Z,99700.16
2023-01-26T00:23:36.039Z,99697.72
2023-01-26T00:26:03.220Z,99691.78
2023-01-26T00:28:30.062Z,99696.84
2023-01-26T00:31:13.708Z,99701.44
2023-01-26T00:33:40.666Z,99696.00
2023-01-26T00:36:10.305Z,99691.69
2023-01-26T00:38:37.176Z,99684.13
2023-01-26T00:41:04.188Z,99657.81
2023-01-26T00:43:31.076Z,99657.56
2023-01-26T00:45:58.022Z,99686.75
2023-01-26T00:48:25.055Z,99683.78
2023-01-26T00:50:52.468Z,99683.22
2023-01-26T00:53:19.457Z,99627.94
2023-01-26T00:55:46.332Z,99663.69
2023-01-26T00:58:13.232Z,99680.44
2023-01-26T01:00:40.194Z,99675.84
2023-01-26T01:03:07.381Z,99648.81
2023-01-26T01:05:34.384Z,99672.94
2023-01-26T01:08:01.733Z,99673.16
2023-01-26T01:10:28.690Z,99666.91
2023-01-26T01:12:56.536Z,99634.47
2023-01-26T01:15:24.493Z,99661.53
2023-01-26T01:17:51.509Z,99663.72
2023-01-26T01:20:18.375Z,99670.75
2023-01-26T01:22:46.783Z,99665.34
2023-01-26T01:25:13.697Z,99660.78
2023-01-26T01:27:40.537Z,99654.59
2023-01-26T01:30:08.602Z,99660.78
2023-01-26T01:32:36.151Z,99649.22
2023-01-26T01:35:03.361Z,99652.66
2023-01-26T01:37:30.421Z,99656.72
2023-01-26T01:39:57.252Z,99638.53
2023-01-26T01:42:24.138Z,99662.34
2023-01-26T01:45:29.513Z,99658.03
2023-01-26T01:47:57.331Z,99653.41
2023-01-26T01:50:24.943Z,99659.28
2023-01-26T01:52:52.512Z,99653.38
2023-01-26T01:55:19.407Z,99655.50
2023-01-26T01:57:58.967Z,99631.94
2023-01-26T02:00:26.058Z,99649.25
2023-01-26T02:03:11.140Z,99627.88
2023-01-26T02:06:00.625Z,99605.69
2023-01-26T02:08:38.824Z,99648.97
2023-01-26T02:11:31.659Z,99641.09
2023-01-26T02:14:02.103Z,99638.34
2023-01-26T02:16:29.662Z,99631.00
2023-01-26T02:18:56.704Z,99621.31
2023-01-26T02:21:23.784Z,99604.75
2023-01-26T02:24:11.921Z,99621.63
2023-01-26T02:26:38.911Z,99590.78
2023-01-26T02:29:08.983Z,99587.28
2023-01-26T02:31:40.273Z,99587.22
2023-01-26T02:34:07.249Z,99612.38
2023-01-26T02:36:34.216Z,99611.00
2023-01-26T02:39:19.803Z,99615.59
2023-01-26T02:42:05.274Z,99617.16
2023-01-26T02:44:32.400Z,99614.19
2023-01-26T02:46:59.271Z,99613.03
2023-01-26T02:49:45.134Z,99605.25
2023-01-26T02:52:20.368Z,99602.53
2023-01-26T02:55:12.613Z,99573.38
2023-01-26T02:57:39.677Z,99597.91
2023-01-26T03:00:12.476Z,99566.22
2023-01-26T03:02:40.342Z,99581.41
2023-01-26T03:05:07.609Z,99595.22
2023-01-26T03:07:34.664Z,99599.66
2023-01-26T03:10:01.508Z,99589.34
2023-01-26T03:12:29.204Z,99592.78
2023-01-26T03:15:16.758Z,99589.22
2023-01-26T03:17:43.756Z,99588.88
2023-01-26T03:20:29.471Z,99591.66
2023-01-26T03:23:14.916Z,99580.44
2023-01-26T03:26:01.850Z,99579.19
2023-01-26T03:28:32.183Z,99569.88
2023-01-26T03:30:59.161Z,99573.72
2023-01-26T03:33:26.219Z,99577.50
2023-01-26T03:35:55.013Z,99571.31
2023-01-26T03:38:22.976Z,99565.41
2023-01-26T03:41:16.500Z,99563.00
2023-01-26T03:44:02.254Z,99555.41
2023-01-26T03:46:47.989Z,99547.28
2023-01-26T03:49:34.065Z,99554.00
2023-01-26T03:52:20.236Z,99554.78
2023-01-26T03:55:06.985Z,99544.97
2023-01-26T03:57:33.956Z,99541.38
2023-01-26T04:00:00.819Z,99543.19
2023-01-26T04:02:47.083Z,99540.97
2023-01-26T04:05:32.456Z,99546.84
2023-01-26T04:08:24.208Z,99532.38
2023-01-26T04:10:56.759Z,99536.56
2023-01-26T04:13:43.394Z,99525.94
2023-01-26T04:16:35.032Z,99532.41
2023-01-26T04:19:20.530Z,99529.56
2023-01-26T04:21:47.386Z,99532.47
2023-01-26T04:24:17.669Z,99494.91
2023-01-26T04:26:46.212Z,99513.56
2023-01-26T04:29:22.925Z,99514.75
2023-01-26T04:31:50.735Z,99487.47
2023-01-26T04:34:20.453Z,99481.72
2023-01-26T04:36:47.335Z,99505.81
2023-01-26T04:39:15.873Z,99514.28
2023-01-26T04:41:46.720Z,99487.50
2023-01-26T04:44:15.592Z,99500.59
2023-01-26T04:46:43.155Z,99480.03
2023-01-26T04:49:12.824Z,99510.22
2023-01-26T04:51:40.033Z,99520.19
2023-01-26T04:54:07.078Z,99512.94
2023-01-26T04:56:37.760Z,99512.09
2023-01-26T04:59:06.310Z,99509.94
2023-01-26T05:01:35.426Z,99515.41
2023-01-26T05:04:05.421Z,99511.53
2023-01-26T05:06:33.341Z,99501.69
2023-01-26T05:09:00.482Z,99501.94
2023-01-26T05:11:28.080Z,99478.88
2023-01-26T05:13:54.963Z,99510.69
2023-01-26T05:16:40.280Z,99501.50
2023-01-26T05:19:18.947Z,99506.41
2023-01-26T05:22:12.506Z,99505.56
2023-01-26T05:24:46.084Z,99492.91
2023-01-26T05:27:32.256Z,99498.59
2023-01-26T05:30:00.993Z,99502.00
2023-01-26T05:32:30.969Z,99497.19
2023-01-26T05:34:58.051Z,99502.69
2023-01-26T05:37:25.878Z,99499.63
2023-01-26T05:39:52.919Z,99502.97
2023-01-26T05:42:20.726Z,99495.81
2023-01-26T05:44:47.633Z,99498.03
2023-01-26T05:47:15.990Z,99485.28
2023-01-26T05:49:46.206Z,99493.38
2023-01-26T05:52:19.444Z,99501.50
2023-01-26T05:54:47.016Z,99470.22
2023-01-26T05:57:13.972Z,99502.56
2023-01-26T05:59:47.046Z,99502.50
2023-01-26T06:02:14.238Z,99500.28
2023-01-26T06:04:44.455Z,99502.16
2023-01-26T06:07:13.747Z,99499.94
2023-01-26T06:10:07.924Z,99504.09
2023-01-26T06:12:52.367Z,99501.59
2023-01-26T06:15:39.652Z,99505.75
2023-01-26T06:18:07.358Z,99497.06
2023-01-26T06:20:35.640Z,99503.03
2023-01-26T06:23:05.690Z,99491.19
2023-01-26T06:25:34.953Z,99505.25
2023-01-26T06:28:03.221Z,99497.88
2023-01-26T06:30:31.291Z,99472.75
2023-01-26T06:33:02.279Z,99498.47
2023-01-26T06:35:30.732Z,99497.69
2023-01-26T06:38:01.845Z,99505.38
2023-01-26T06:40:28.959Z,99503.72
2023-01-26T06:42:56.060Z,99503.63
2023-01-26T06:45:23.158Z,99494.25
2023-01-26T06:47:51.566Z,99497.94
2023-01-26T06:50:23.051Z,99497.38
2023-01-26T06:52:56.665Z,99484.41
2023-01-26T06:55:42.794Z,99491.25
2023-01-26T06:58:34.389Z,99502.94
2023-01-26T07:01:07.333Z,99497.03
2023-01-26T07:03:34.306Z,99491.38
2023-01-26T07:06:01.643Z,99498.66
2023-01-26T07:08:28.710Z,99494.53
2023-01-26T07:10:55.838Z,99484.72
2023-01-26T07:13:22.920Z,99485.34
2023-01-26T07:15:49.968Z,99456.81
2023-01-26T07:18:17.074Z,99476.31
2023-01-26T07:20:43.995Z,99489.91
2023-01-26T07:23:11.327Z,99474.09
2023-01-26T07:25:38.275Z,99470.34
2023-01-26T07:28:05.285Z,99473.31
2023-01-26T07:30:32.276Z,99470.56
2023-01-26T07:33:00.725Z,99472.19
2023-01-26T07:35:29.431Z,99458.22
2023-01-26T07:37:58.572Z,99436.03
2023-01-26T07:40:25.575Z,99439.16
2023-01-26T07:42:52.489Z,99459.38
2023-01-26T07:45:23.711Z,99452.41
2023-01-26T07:47:50.681Z,99435.72
2023-01-26T07:50:18.473Z,99466.69
2023-01-26T07:52:45.528Z,99458.47
2023-01-26T07:55:12.513Z,99451.69
2023-01-26T07:57:39.467Z,99449.19
2023-01-26T08:00:07.256Z,99453.09
2023-01-26T08:02:38.826Z,99464.63
2023-01-26T08:05:06.590Z,99452.72
2023-01-26T08:07:33.573Z,99459.72
2023-01-26T08:10:00.622Z,99467.72
2023-01-26T08:12:27.747Z,99460.28
2023-01-26T08:14:54.676Z,99454.78
2023-01-26T08:17:21.621Z,99458.31
2023-01-26T08:19:51.646Z,99456.94
2023-01-26T08:22:18.555Z,99466.53
2023-01-26T08:24:45.504Z,99463.59
2023-01-26T08:27:12.431Z,99459.25
2023-01-26T08:29:39.646Z,99454.75
2023-01-26T08:32:08.311Z,99457.72
2023-01-26T08:34:35.662Z,99452.56
2023-01-26T08:37:03.269Z,99457.16
2023-01-26T08:39:30.283Z,99452.09
2023-01-26T08:41:57.350Z,99448.41
2023-01-26T08:44:24.275Z,99451.16
2023-01-26T08:46:51.338Z,99457.72
2023-01-26T08:49:18.254Z,99450.72
2023-01-26T08:51:45.216Z,99454.13
2023-01-26T08:54:12.208Z,99454.94
2023-01-26T08:56:39.115Z,99449.31
2023-01-26T08:59:06.096Z,99443.00
2023-01-26T09:01:33.108Z,99450.31
2023-01-26T09:04:00.257Z,99453.53
2023-01-26T09:06:28.465Z,99460.88
2023-01-26T09:08:55.505Z,99456.19
2023-01-26T09:11:22.451Z,99455.91
2023-01-26T09:14:01.470Z,99463.59
2023-01-26T09:16:28.497Z,99453.28
2023-01-26T09:18:55.667Z,99449.72
2023-01-26T09:21:24.173Z,99454.47
2023-01-26T09:23:51.113Z,99452.84
2023-01-26T09:26:18.105Z,99456.50
2023-01-26T09:28:45.210Z,99458.53
2023-01-26T09:31:12.337Z,99454.38
2023-01-26T09:33:39.321Z,99456.50
2023-01-26T09:36:10.635Z,99453.75
2023-01-26T09:38:37.944Z,99451.91
2023-01-26T09:41:50.210Z,99448.19
2023-01-26T09:44:20.981Z,99418.34
2023-01-26T09:46:59.777Z,99431.31
2023-01-26T09:49:29.684Z,99432.91
2023-01-26T09:52:02.871Z,99420.13
2023-01-26T09:55:00.893Z,99425.81
2023-01-26T09:57:38.473Z,99429.72
2023-01-26T10:00:12.531Z,99426.72
2023-01-26T10:02:52.971Z,99431.59
2023-01-26T10:05:22.519Z,99427.31
2023-01-26T10:07:49.436Z,99431.22
2023-01-26T10:10:28.150Z,99421.03
2023-01-26T10:12:55.187Z,99420.31
2023-01-26T10:15:39.231Z,99425.19
2023-01-26T10:18:19.855Z,99388.41
2023-01-26T10:20:52.241Z,99406.44
2023-01-26T10:23:27.653Z,99414.16
2023-01-26T10:25:58.817Z,99411.03
2023-01-26T10:28:29.508Z,99391.41
2023-01-26T10:30:56.623Z,99402.78
2023-01-26T10:33:23.636Z,99405.03
2023-01-26T10:35:50.586Z,99406.78
2023-01-26T10:38:47.381Z,99406.84
2023-01-26T10:41:14.153Z,99402.88
2023-01-26T10:43:41.959Z,99401.34
2023-01-26T10:46:30.738Z,99403.19
2023-01-26T10:49:00.187Z,99391.72
2023-01-26T10:51:31.955Z,99394.13
2023-01-26T10:54:26.827Z,99391.44
2023-01-26T10:57:01.074Z,99392.69
2023-01-26T10:59:54.027Z,99394.25
2023-01-26T11:02:28.066Z,99389.19
2023-01-26T11:05:25.032Z,99391.56
2023-01-26T11:07:58.961Z,99392.53
2023-01-26T11:10:26.050Z,99391.53
2023-01-26T11:13:13.238Z,99382.16
2023-01-26T11:15:48.216Z,99369.66
2023-01-26T11:18:49.190Z,99372.69
2023-01-26T11:21:22.393Z,99379.44
2023-01-26T11:24:11.387Z,99375.16
2023-01-26T11:27:00.040Z,99374.03
2023-01-26T11:29:52.356Z,99364.81
2023-01-26T11:32:47.021Z,99362.50
2023-01-26T11:35:44.759Z,99323.94
2023-01-26T11:38:30.050Z,99355.13
2023-01-26T11:41:37.717Z,99355.94
2023-01-26T11:44:17.834Z,99307.28
2023-01-26T11:46:57.619Z,99356.72
2023-01-26T11:49:27.546Z,99351.72
2023-01-26T11:52:19.289Z,99348.50
2023-01-26T11:55:07.764Z,99343.28
2023-01-26T11:57:41.263Z,99325.00
2023-01-26T12:00:29.620Z,99326.78
2023-01-26T12:03:06.058Z,99327.84
2023-01-26T12:05:44.333Z,99310.81
2023-01-26T12:08:11.286Z,99318.41
2023-01-26T12:11:22.371Z,99311.66
2023-01-26T12:14:03.764Z,99311.56
2023-01-26T12:16:42.988Z,99305.75
2023-01-26T12:19:28.521Z,99307.88
2023-01-26T12:21:58.287Z,99293.19
2023-01-26T12:25:04.964Z,99278.88
2023-01-26T12:27:27.168Z,99305.94
2023-01-26T12:30:03.056Z,99301.97
2023-01-26T12:32:31.398Z,99305.03
2023-01-26T12:34:58.531Z,99307.53
2023-01-26T12:37:41.249Z,99301.13
2023-01-26T12:40:44.887Z,99286.47
2023-01-26T12:43:11.789Z,99288.88
2023-01-26T12:45:40.326Z,99270.31
2023-01-26T12:48:22.585Z,99277.19
2023-01-26T12:50:59.502Z,99282.56
2023-01-26T12:53:31.594Z,99276.59
2023-01-26T12:56:08.264Z,99283.41
2023-01-26T12:58:37.996Z,99279.28
2023-01-26T13:01:18.398Z,99252.06
2023-01-26T13:03:52.399Z,99244.63
2023-01-26T13:06:21.387Z,99261.75
2023-01-26T13:08:58.236Z,99278.13
2023-01-26T13:11:44.864Z,99280.44
2023-01-26T13:14:33.590Z,99280.56
2023-01-26T13:17:15.625Z,99279.06
2023-01-26T13:19:42.582Z,99273.69
2023-01-26T13:22:24.473Z,99271.69
2023-01-26T13:24:57.139Z,99275.66
2023-01-26T13:27:32.402Z,99286.25
2023-01-26T13:30:00.212Z,99274.88
2023-01-26T13:32:27.079Z,99279.72
2023-01-26T13:34:57.881Z,99276.47
2023-01-26T13:38:10.199Z,99281.78
2023-01-26T13:40:38.453Z,99289.06
2023-01-26T13:43:37.112Z,99257.97
2023-01-26T13:46:30.198Z,99285.59
2023-01-26T13:48:57.352Z,99276.69
2023-01-26T13:51:28.505Z,99278.06
2023-01-26T13:54:07.284Z,99274.28
2023-01-26T13:56:39.033Z,99265.75
2023-01-26T13:59:16.210Z,99265.97
2023-01-26T14:01:51.261Z,99273.13
2023-01-26T14:04:22.514Z,99259.47
2023-01-26T14:07:07.410Z,99242.41
2023-01-26T14:09:42.647Z,99263.63
2023-01-26T14:12:17.737Z,99269.63
2023-01-26T14:14:46.968Z,99260.22
2023-01-26T14:17:27.473Z,99237.78
2023-01-26T14:19:54.512Z,99261.03
2023-01-26T14:22:22.533Z,99261.88
2023-01-26T14:24:50.777Z,99266.38
2023-01-26T14:27:29.775Z,99260.59
2023-01-26T14:29:56.915Z,99257.00
2023-01-26T14:32:25.561Z,99263.78
2023-01-26T14:34:57.540Z,99267.38
2023-01-26T14:37:24.495Z,99245.47
2023-01-26T14:40:10.667Z,99248.00
2023-01-26T14:42:37.946Z,99260.00
2023-01-26T14:45:06.135Z,99251.44
2023-01-26T14:47:33.088Z,99251.31
2023-01-26T14:50:30.896Z,99246.31
2023-01-26T14:52:58.252Z,99224.72
2023-01-26T14:55:29.989Z,99245.88
2023-01-26T14:57:57.278Z,99251.25
2023-01-26T15:00:36.526Z,99253.16
2023-01-26T15:03:11.786Z,99252.03
2023-01-26T15:05:39.468Z,99245.91
2023-01-26T15:08:23.764Z,99239.25
2023-01-26T15:11:19.949Z,99256.50
2023-01-26T15:13:48.429Z,99227.09
2023-01-26T15:16:19.941Z,99254.06
2023-01-26T15:18:57.121Z,99247.53
2023-01-26T15:21:26.065Z,99254.22
2023-01-26T15:23:53.067Z,99247.25
2023-01-26T15:26:29.851Z,99238.06
2023-01-26T15:28:58.416Z,99264.75
2023-01-26T15:31:36.025Z,99258.69
2023-01-26T15:34:03.514Z,99261.50
2023-01-26T15:36:51.801Z,99262.00
2023-01-26T15:39:19.611Z,99224.38
2023-01-26T15:41:58.615Z,99254.91
2023-01-26T15:44:25.482Z,99248.88
2023-01-26T15:46:52.422Z,99241.38
2023-01-26T15:49:20.156Z,99255.09
2023-01-26T15:51:47.035Z,99249.53
2023-01-26T15:54:13.879Z,99248.47
2023-01-26T15:56:40.766Z,99253.31
2023-01-26T15:59:07.711Z,99236.34
2023-01-26T16:01:34.654Z,99256.56
2023-01-26T16:04:01.543Z,99259.78
2023-01-26T16:06:30.089Z,99234.81
2023-01-26T16:08:56.954Z,99265.28
2023-01-26T16:11:28.967Z,99270.31
2023-01-26T16:14:03.313Z,99264.53
2023-01-26T16:16:32.302Z,99259.91
2023-01-26T16:18:59.553Z,99266.19
2023-01-26T16:21:30.254Z,99264.91
2023-01-26T16:23:57.524Z,99267.63
2023-01-26T16:26:25.172Z,99246.56
2023-01-26T16:28:52.047Z,99252.34
2023-01-26T16:31:23.353Z,99233.25
2023-01-26T16:33:50.305Z,99257.81
2023-01-26T16:36:17.864Z,99244.47
2023-01-26T16:38:44.937Z,99249.59
2023-01-26T16:41:26.788Z,99198.88
2023-01-26T16:43:54.881Z,99249.44
2023-01-26T16:46:21.822Z,99251.34
2023-01-26T16:48:48.877Z,99241.06
2023-01-26T16:51:25.349Z,99244.09
2023-01-26T16:53:52.556Z,99216.44
2023-01-26T16:56:19.613Z,99240.06
2023-01-26T16:58:46.575Z,99210.16
2023-01-26T17:01:30.212Z,99235.69
2023-01-26T17:03:57.205Z,99234.56
2023-01-26T17:06:24.077Z,99218.78
2023-01-26T17:08:50.939Z,99235.28
2023-01-26T17:11:22.344Z,99233.50
2023-01-26T17:13:49.521Z,99237.19
2023-01-26T17:16:19.266Z,99212.41
2023-01-26T17:18:46.471Z,99240.44
2023-01-26T17:21:14.233Z,99214.72
2023-01-26T17:23:44.379Z,99240.56
2023-01-26T17:26:13.892Z,99242.00
2023-01-26T17:28:40.816Z,99242.94
2023-01-26T17:31:11.749Z,99208.19
2023-01-26T17:33:38.798Z,99240.75
2023-01-26T17:36:06.353Z,99240.56
2023-01-26T17:38:33.224Z,99212.22
2023-01-26T17:41:00.333Z,99231.34
2023-01-26T17:43:27.474Z,99213.59
2023-01-26T17:46:13.685Z,99239.03
2023-01-26T17:48:40.684Z,99232.22
2023-01-26T17:51:08.631Z,99234.44
2023-01-26T17:53:42.070Z,99205.56
2023-01-26T17:56:09.790Z,99212.75
2023-01-26T17:58:36.956Z,99238.78
2023-01-26T18:01:04.920Z,99206.44
2023-01-26T18:03:32.075Z,99243.88
2023-01-26T18:05:59.076Z,99225.78
2023-01-26T18:08:26.179Z,99251.72
2023-01-26T18:11:03.322Z,99226.44
2023-01-26T18:13:30.715Z,99241.50
2023-01-26T18:15:57.580Z,99248.16
2023-01-26T18:18:25.293Z,99250.97
2023-01-26T18:20:52.312Z,99261.13
2023-01-26T18:23:19.609Z,99256.22
2023-01-26T18:25:46.463Z,99241.81
2023-01-26T18:28:13.602Z,99234.88
2023-01-26T18:30:40.595Z,99265.88
2023-01-26T18:33:07.809Z,99266.78
2023-01-26T18:35:34.872Z,99274.81
2023-01-26T18:38:01.992Z,99274.41
2023-01-26T18:40:28.853Z,99272.03
2023-01-26T18:42:56.077Z,99247.97
2023-01-26T18:45:23.013Z,99281.47
2023-01-26T18:47:50.028Z,99281.03
2023-01-26T18:50:17.473Z,99251.25
2023-01-26T18:52:44.312Z,99277.19
2023-01-26T18:55:11.686Z,99255.09
2023-01-26T18:57:38.811Z,99272.81
2023-01-26T19:00:06.729Z,99272.91
2023-01-26T19:02:38.927Z,99268.38
2023-01-26T19:05:06.897Z,99269.84
2023-01-26T19:07:33.985Z,99271.53
2023-01-26T19:10:00.916Z,99265.38
2023-01-26T19:12:27.762Z,99265.97
2023-01-26T19:14:54.593Z,99262.28
2023-01-26T19:17:21.557Z,99258.94
2023-01-26T19:19:48.457Z,99270.31
2023-01-26T19:22:15.303Z,99271.16
2023-01-26T19:24:43.090Z,99265.81
2023-01-26T19:27:10.558Z,99281.56
2023-01-26T19:29:37.449Z,99266.13
2023-01-26T19:32:04.621Z,99267.19
2023-01-26T19:34:32.238Z,99265.59
2023-01-26T19:36:59.291Z,99275.13
2023-01-26T19:39:26.238Z,99265.66
2023-01-26T19:41:53.120Z,99247.06
2023-01-26T19:44:19.978Z,99260.03
2023-01-26T19:46:49.674Z,99262.22
2023-01-26T19:49:17.521Z,99257.94
2023-01-26T19:51:44.396Z,99256.91
2023-01-26T19:54:11.343Z,99259.63
2023-01-26T19:56:38.575Z,99258.28
2023-01-26T19:59:07.419Z,99257.28
2023-01-26T20:01:34.396Z,99260.84
2023-01-26T20:04:03.466Z,99249.78
2023-01-26T20:06:31.974Z,99254.19
2023-01-26T20:08:58.916Z,99233.03
2023-01-26T20:11:27.271Z,99240.31
2023-01-26T20:14:03.873Z,99253.88
2023-01-26T20:16:30.844Z,99250.78
2023-01-26T20:18:57.867Z,99256.81
2023-01-26T20:21:24.865Z,99230.28
2023-01-26T20:23:55.409Z,99251.84
2023-01-26T20:26:23.722Z,99249.22
2023-01-26T20:28:50.809Z,99238.50
2023-01-26T20:31:20.328Z,99218.66
2023-01-26T20:33:48.924Z,99247.69
2023-01-26T20:36:17.736Z,99251.22
2023-01-26T20:38:44.959Z,99254.72
2023-01-26T20:41:13.755Z,99253.69
2023-01-26T20:43:46.503Z,99250.53
2023-01-26T20:46:24.510Z,99250.00
2023-01-26T20:48:51.950Z,99254.63
2023-01-26T20:51:23.467Z,99243.59
2023-01-26T20:53:50.597Z,99249.03
2023-01-26T20:56:19.701Z,99242.34
2023-01-26T20:58:46.657Z,99241.25
2023-01-26T21:01:15.056Z,99243.16
2023-01-26T21:03:42.050Z,99204.69
2023-01-26T21:06:10.078Z,99184.28
2023-01-26T21:08:37.111Z,99241.06
2023-01-26T21:11:10.812Z,99240.59
2023-01-26T21:13:37.726Z,99234.16
2023-01-26T21:16:04.872Z,99214.03
2023-01-26T21:18:31.792Z,99239.59
2023-01-26T21:21:04.890Z,99205.16
2023-01-26T21:23:32.286Z,99209.72
2023-01-26T21:26:04.240Z,99229.34
2023-01-26T21:28:31.250Z,99208.94
2023-01-26T21:31:08.761Z,99201.06
2023-01-26T21:33:44.254Z,99226.63
2023-01-26T21:36:12.943Z,99199.44
2023-01-26T21:38:41.491Z,99232.50
2023-01-26T21:41:27.838Z,99230.34
2023-01-26T21:43:56.773Z,99226.03
2023-01-26T21:46:23.635Z,99218.50
2023-01-26T21:48:50.812Z,99220.09
2023-01-26T21:51:36.386Z,99221.19
2023-01-26T21:54:03.659Z,99224.47
2023-01-26T21:56:30.570Z,99223.94
2023-01-26T21:59:02.513Z,99204.00
2023-01-26T22:01:33.101Z,99187.03
2023-01-26T22:04:00.825Z,99219.09
2023-01-26T22:06:27.836Z,99213.47
2023-01-26T22:08:54.909Z,99210.53
2023-01-26T22:11:21.910Z,99175.03
2023-01-26T22:13:48.806Z,99206.25
2023-01-26T22:16:15.791Z,99191.19
2023-01-26T22:18:43.856Z,99203.81
2023-01-26T22:21:10.716Z,99207.91
2023-01-26T22:23:38.218Z,99181.53
2023-01-26T22:26:09.496Z,99190.09
2023-01-26T22:28:36.402Z,99194.47
2023-01-26T22:31:06.639Z,99202.03
2023-01-26T22:33:34.261Z,99195.03
2023-01-26T22:36:07.742Z,99162.25
2023-01-26T22:38:35.403Z,99167.66
2023-01-26T22:41:03.188Z,99194.84
2023-01-26T22:43:30.676Z,99193.50
2023-01-26T22:46:09.123Z,99200.81
2023-01-26T22:48:36.321Z,99197.81
2023-01-26T22:51:19.043Z,99200.81
2023-01-26T22:53:46.077Z,99185.19
2023-01-26T22:56:12.977Z,99162.88
2023-01-26T22:58:56.553Z,99190.31
2023-01-26T23:01:25.230Z,99178.19
2023-01-26T23:03:53.137Z,99183.59
2023-01-26T23:06:20.095Z,99191.69
2023-01-26T23:08:47.087Z,99185.25
2023-01-26T23:11:27.508Z,99186.59
2023-01-26T23:13:55.192Z,99150.25
2023-01-26T23:16:23.671Z,99180.72
2023-01-26T23:18:51.885Z,99187.44
2023-01-26T23:21:18.810Z,99179.38
2023-01-26T23:23:45.754Z,99181.25
2023-01-26T23:26:12.699Z,99177.78
2023-01-26T23:28:41.159Z,99181.25
2023-01-26T23:31:08.392Z,99169.94
2023-01-26T23:33:35.518Z,99186.66
2023-01-26T23:36:02.445Z,99182.91
2023-01-26T23:38:29.961Z,99178.06
2023-01-26T23:40:56.931Z,99178.06
2023-01-26T23:43:24.754Z,99179.69
2023-01-26T23:45:51.899Z,99183.75
2023-01-26T23:48:19.009Z,99186.97
2023-01-26T23:50:45.913Z,99186.41
2023-01-26T23:53:12.815Z,99190.47
2023-01-26T23:55:41.323Z,99191.00
2023-01-26T23:58:08.637Z,99195.59
